sensor_id;sensor_type;location;lat;lon;timestamp;pressure;altitude;pressure_sealevel;temperature;humidity
32733;BME280;11867;51.198;11.966;2022-11-20T00:00:11;100200.25;;;-4.48;90.97
32733;BME280;11867;51.198;11.966;2022-11-20T00:05:15;100194.28;;;-4.50;91.44
32733;BME280;11867;51.198;11.966;2022-11-20T00:10:21;100194.81;;;-4.40;93.86
32733;BME280;11867;51.198;11.966;2022-11-20T00:15:24;100195.66;;;-4.99;93.92
32733;BME280;11867;51.198;11.966;2022-11-20T00:20:29;100183.41;;;-4.85;94.36
32733;BME280;11867;51.198;11.966;2022-11-20T00:25:33;100187.94;;;-5.23;97.20
32733;BME280;11867;51.198;11.966;2022-11-20T00:30:36;100179.28;;;-4.36;95.86
32733;BME280;11867;51.198;11.966;2022-11-20T00:35:40;100184.47;;;-3.70;90.85
32733;BME280;11867;51.198;11.966;2022-11-20T00:40:45;100182.94;;;-3.58;88.05
32733;BME280;11867;51.198;11.966;2022-11-20T00:45:58;100179.59;;;-3.45;86.03
32733;BME280;11867;51.198;11.966;2022-11-20T00:51:02;100183.91;;;-3.66;87.09
32733;BME280;11867;51.198;11.966;2022-11-20T00:56:06;100182.56;;;-3.98;88.22
32733;BME280;11867;51.198;11.966;2022-11-20T01:01:10;100179.41;;;-3.87;88.93
32733;BME280;11867;51.198;11.966;2022-11-20T01:06:17;100178.91;;;-4.33;89.84
32733;BME280;11867;51.198;11.966;2022-11-20T01:11:22;100178.97;;;-5.22;93.63
32733;BME280;11867;51.198;11.966;2022-11-20T01:16:27;100169.53;;;-4.80;94.89
32733;BME280;11867;51.198;11.966;2022-11-20T01:21:33;100169.78;;;-4.09;88.93
32733;BME280;11867;51.198;11.966;2022-11-20T01:26:39;100174.47;;;-4.92;91.46
32733;BME280;11867;51.198;11.966;2022-11-20T01:31:42;100164.94;;;-5.69;95.63
32733;BME280;11867;51.198;11.966;2022-11-20T01:36:48;100172.38;;;-4.82;94.66
32733;BME280;11867;51.198;11.966;2022-11-20T01:41:52;100172.38;;;-4.97;90.35
32733;BME280;11867;51.198;11.966;2022-11-20T01:47:15;100164.13;;;-4.21;89.57
32733;BME280;11867;51.198;11.966;2022-11-20T01:52:21;100169.66;;;-3.79;86.43
32733;BME280;11867;51.198;11.966;2022-11-20T01:57:28;100172.94;;;-3.77;86.68
32733;BME280;11867;51.198;11.966;2022-11-20T02:02:32;100162.78;;;-3.67;86.28
32733;BME280;11867;51.198;11.966;2022-11-20T02:07:36;100159.88;;;-4.52;87.22
32733;BME280;11867;51.198;11.966;2022-11-20T02:12:40;100156.84;;;-4.63;88.79
32733;BME280;11867;51.198;11.966;2022-11-20T02:18:00;100165.72;;;-4.41;88.88
32733;BME280;11867;51.198;11.966;2022-11-20T02:23:08;100159.19;;;-4.39;88.76
32733;BME280;11867;51.198;11.966;2022-11-20T02:28:16;100155.19;;;-3.92;87.17
32733;BME280;11867;51.198;11.966;2022-11-20T02:33:20;100153.78;;;-3.88;86.20
32733;BME280;11867;51.198;11.966;2022-11-20T02:38:22;100146.81;;;-4.10;88.16
32733;BME280;11867;51.198;11.966;2022-11-20T02:43:26;100143.06;;;-4.16;86.92
32733;BME280;11867;51.198;11.966;2022-11-20T02:48:29;100133.72;;;-3.62;85.92
32733;BME280;11867;51.198;11.966;2022-11-20T02:53:34;100142.50;;;-3.90;84.99
32733;BME280;11867;51.198;11.966;2022-11-20T02:58:38;100139.06;;;-5.90;94.75
32733;BME280;11867;51.198;11.966;2022-11-20T03:03:41;100132.34;;;-5.25;94.73
32733;BME280;11867;51.198;11.966;2022-11-20T03:08:43;100124.47;;;-4.31;89.69
32733;BME280;11867;51.198;11.966;2022-11-20T03:13:47;100125.66;;;-3.97;87.12
32733;BME280;11867;51.198;11.966;2022-11-20T03:18:52;100116.19;;;-4.57;86.52
32733;BME280;11867;51.198;11.966;2022-11-20T03:23:54;100117.00;;;-4.20;87.00
32733;BME280;11867;51.198;11.966;2022-11-20T03:29:00;100106.34;;;-4.20;84.97
32733;BME280;11867;51.198;11.966;2022-11-20T03:34:03;100108.09;;;-4.49;86.33
32733;BME280;11867;51.198;11.966;2022-11-20T03:39:06;100110.44;;;-4.03;85.88
32733;BME280;11867;51.198;11.966;2022-11-20T03:44:11;100096.91;;;-4.23;86.29
32733;BME280;11867;51.198;11.966;2022-11-20T03:49:14;100094.00;;;-4.07;85.45
32733;BME280;11867;51.198;11.966;2022-11-20T03:54:16;100095.94;;;-5.10;88.40
32733;BME280;11867;51.198;11.966;2022-11-20T03:59:20;100099.47;;;-4.73;88.41
32733;BME280;11867;51.198;11.966;2022-11-20T04:04:23;100101.41;;;-4.45;85.82
32733;BME280;11867;51.198;11.966;2022-11-20T04:09:26;100110.00;;;-4.64;85.30
32733;BME280;11867;51.198;11.966;2022-11-20T04:14:30;100105.66;;;-5.02;88.65
32733;BME280;11867;51.198;11.966;2022-11-20T04:19:33;100103.34;;;-4.54;85.43
32733;BME280;11867;51.198;11.966;2022-11-20T04:24:35;100100.34;;;-4.66;85.32
32733;BME280;11867;51.198;11.966;2022-11-20T04:29:39;100106.53;;;-4.43;84.05
32733;BME280;11867;51.198;11.966;2022-11-20T04:34:42;100096.00;;;-4.73;84.43
32733;BME280;11867;51.198;11.966;2022-11-20T04:39:45;100086.31;;;-4.59;84.91
32733;BME280;11867;51.198;11.966;2022-11-20T04:44:49;100092.03;;;-4.41;83.65
32733;BME280;11867;51.198;11.966;2022-11-20T04:49:51;100088.75;;;-4.21;83.64
32733;BME280;11867;51.198;11.966;2022-11-20T04:54:54;100088.53;;;-4.41;82.93
32733;BME280;11867;51.198;11.966;2022-11-20T04:59:59;100081.78;;;-4.44;82.44
32733;BME280;11867;51.198;11.966;2022-11-20T05:05:02;100078.53;;;-4.76;83.37
32733;BME280;11867;51.198;11.966;2022-11-20T05:10:06;100077.66;;;-4.83;84.05
32733;BME280;11867;51.198;11.966;2022-11-20T05:15:10;100079.88;;;-5.01;85.20
32733;BME280;11867;51.198;11.966;2022-11-20T05:20:16;100075.34;;;-4.86;84.67
32733;BME280;11867;51.198;11.966;2022-11-20T05:25:18;100078.53;;;-4.76;84.81
32733;BME280;11867;51.198;11.966;2022-11-20T05:30:22;100080.22;;;-4.53;85.34
32733;BME280;11867;51.198;11.966;2022-11-20T05:35:25;100079.16;;;-5.10;86.82
32733;BME280;11867;51.198;11.966;2022-11-20T05:40:28;100067.88;;;-4.97;87.05
32733;BME280;11867;51.198;11.966;2022-11-20T05:45:32;100066.84;;;-4.96;86.63
32733;BME280;11867;51.198;11.966;2022-11-20T05:50:36;100060.44;;;-4.87;87.84
32733;BME280;11867;51.198;11.966;2022-11-20T05:55:39;100055.06;;;-4.51;85.76
32733;BME280;11867;51.198;11.966;2022-11-20T06:00:43;100051.94;;;-4.61;85.89
32733;BME280;11867;51.198;11.966;2022-11-20T06:05:45;100046.75;;;-4.84;85.89
32733;BME280;11867;51.198;11.966;2022-11-20T06:10:48;100052.91;;;-4.98;85.85
32733;BME280;11867;51.198;11.966;2022-11-20T06:15:54;100046.03;;;-4.56;86.53
32733;BME280;11867;51.198;11.966;2022-11-20T06:21:02;100053.66;;;-5.04;87.14
32733;BME280;11867;51.198;11.966;2022-11-20T06:26:07;100059.69;;;-4.81;86.88
32733;BME280;11867;51.198;11.966;2022-11-20T06:31:12;100067.38;;;-4.71;86.38
32733;BME280;11867;51.198;11.966;2022-11-20T06:36:18;100075.22;;;-4.63;85.38
32733;BME280;11867;51.198;11.966;2022-11-20T06:41:21;100075.88;;;-5.27;88.32
32733;BME280;11867;51.198;11.966;2022-11-20T06:46:25;100078.00;;;-4.86;87.45
32733;BME280;11867;51.198;11.966;2022-11-20T06:51:28;100076.69;;;-5.12;87.55
32733;BME280;11867;51.198;11.966;2022-11-20T06:56:31;100069.09;;;-5.44;89.32
32733;BME280;11867;51.198;11.966;2022-11-20T07:01:35;100068.34;;;-5.38;89.63
32733;BME280;11867;51.198;11.966;2022-11-20T07:06:40;100066.09;;;-4.90;88.09
32733;BME280;11867;51.198;11.966;2022-11-20T07:11:43;100069.00;;;-5.51;91.29
32733;BME280;11867;51.198;11.966;2022-11-20T07:16:47;100060.63;;;-5.03;87.98
32733;BME280;11867;51.198;11.966;2022-11-20T07:21:49;100071.41;;;-4.90;88.75
32733;BME280;11867;51.198;11.966;2022-11-20T07:26:52;100068.53;;;-5.10;89.59
32733;BME280;11867;51.198;11.966;2022-11-20T07:31:56;100068.16;;;-5.22;90.50
32733;BME280;11867;51.198;11.966;2022-11-20T07:36:58;100056.69;;;-5.08;90.39
32733;BME280;11867;51.198;11.966;2022-11-20T07:42:07;100051.34;;;-4.35;88.45
32733;BME280;11867;51.198;11.966;2022-11-20T07:47:13;100053.63;;;-4.10;85.87
32733;BME280;11867;51.198;11.966;2022-11-20T07:52:17;100043.53;;;-4.15;87.03
32733;BME280;11867;51.198;11.966;2022-11-20T07:57:20;100042.88;;;-3.67;86.18
32733;BME280;11867;51.198;11.966;2022-11-20T08:02:30;100051.88;;;-3.33;86.08
32733;BME280;11867;51.198;11.966;2022-11-20T08:07:35;100044.97;;;-3.28;85.56
32733;BME280;11867;51.198;11.966;2022-11-20T08:12:43;100051.50;;;-3.30;84.64
32733;BME280;11867;51.198;11.966;2022-11-20T08:18:07;100040.53;;;-3.07;85.49
32733;BME280;11867;51.198;11.966;2022-11-20T08:23:32;100027.56;;;-2.55;84.64
32733;BME280;11867;51.198;11.966;2022-11-20T08:28:38;100025.56;;;-2.07;83.81
32733;BME280;11867;51.198;11.966;2022-11-20T08:33:43;100016.50;;;-2.39;85.19
32733;BME280;11867;51.198;11.966;2022-11-20T08:38:47;100026.19;;;-2.05;85.02
32733;BME280;11867;51.198;11.966;2022-11-20T08:43:53;100025.13;;;-1.97;86.36
32733;BME280;11867;51.198;11.966;2022-11-20T08:48:59;100036.63;;;-2.30;87.70
32733;BME280;11867;51.198;11.966;2022-11-20T08:54:03;100041.72;;;-2.61;90.38
32733;BME280;11867;51.198;11.966;2022-11-20T08:59:06;100033.34;;;-2.45;91.38
32733;BME280;11867;51.198;11.966;2022-11-20T09:04:30;100029.25;;;-1.88;89.05
32733;BME280;11867;51.198;11.966;2022-11-20T09:09:34;100020.19;;;-1.87;88.46
32733;BME280;11867;51.198;11.966;2022-11-20T09:14:39;100027.81;;;-2.24;91.22
32733;BME280;11867;51.198;11.966;2022-11-20T09:19:44;100022.88;;;-2.00;90.95
32733;BME280;11867;51.198;11.966;2022-11-20T09:24:47;100032.72;;;-1.80;90.23
32733;BME280;11867;51.198;11.966;2022-11-20T09:29:51;100037.69;;;-2.04;90.67
32733;BME280;11867;51.198;11.966;2022-11-20T09:34:56;100034.34;;;-1.66;90.66
32733;BME280;11867;51.198;11.966;2022-11-20T09:40:03;100031.72;;;-1.08;88.77
32733;BME280;11867;51.198;11.966;2022-11-20T09:45:16;100022.22;;;-0.90;86.58
32733;BME280;11867;51.198;11.966;2022-11-20T09:50:31;100021.13;;;-0.19;85.08
32733;BME280;11867;51.198;11.966;2022-11-20T09:55:37;100013.88;;;-0.12;83.24
32733;BME280;11867;51.198;11.966;2022-11-20T10:00:41;100018.16;;;-0.36;84.76
32733;BME280;11867;51.198;11.966;2022-11-20T10:05:51;100010.59;;;0.11;82.20
32733;BME280;11867;51.198;11.966;2022-11-20T10:11:00;100006.66;;;1.67;79.30
32733;BME280;11867;51.198;11.966;2022-11-20T10:16:15;100013.69;;;1.07;79.01
32733;BME280;11867;51.198;11.966;2022-11-20T10:21:27;100004.31;;;0.79;80.29
32733;BME280;11867;51.198;11.966;2022-11-20T10:26:41;99994.31;;;0.31;81.74
32733;BME280;11867;51.198;11.966;2022-11-20T10:31:48;99981.97;;;0.49;82.57
32733;BME280;11867;51.198;11.966;2022-11-20T10:36:55;99983.53;;;0.75;81.73
32733;BME280;11867;51.198;11.966;2022-11-20T10:41:59;99973.81;;;0.37;83.40
32733;BME280;11867;51.198;11.966;2022-11-20T10:47:03;99957.13;;;-0.02;85.44
32733;BME280;11867;51.198;11.966;2022-11-20T10:52:12;99962.81;;;0.45;84.34
32733;BME280;11867;51.198;11.966;2022-11-20T10:57:27;99941.59;;;1.23;81.39
32733;BME280;11867;51.198;11.966;2022-11-20T11:02:40;99931.03;;;1.09;80.12
32733;BME280;11867;51.198;11.966;2022-11-20T11:07:46;99923.09;;;3.08;75.18
32733;BME280;11867;51.198;11.966;2022-11-20T11:12:50;99916.94;;;5.57;66.20
32733;BME280;11867;51.198;11.966;2022-11-20T11:17:53;99920.91;;;8.66;58.84
32733;BME280;11867;51.198;11.966;2022-11-20T11:22:58;99928.44;;;8.85;55.22
32733;BME280;11867;51.198;11.966;2022-11-20T11:28:03;99918.97;;;10.73;53.42
32733;BME280;11867;51.198;11.966;2022-11-20T11:33:09;99922.47;;;12.62;49.69
32733;BME280;11867;51.198;11.966;2022-11-20T11:38:16;99909.59;;;12.62;49.07
32733;BME280;11867;51.198;11.966;2022-11-20T11:43:22;99925.84;;;9.14;53.49
32733;BME280;11867;51.198;11.966;2022-11-20T11:48:54;99917.56;;;8.85;55.00
32733;BME280;11867;51.198;11.966;2022-11-20T11:54:00;99897.75;;;11.79;50.56
32733;BME280;11867;51.198;11.966;2022-11-20T11:59:11;99891.69;;;10.73;53.61
32733;BME280;11867;51.198;11.966;2022-11-20T12:04:20;99890.41;;;13.26;49.02
32733;BME280;11867;51.198;11.966;2022-11-20T12:09:37;99900.28;;;10.37;52.92
32733;BME280;11867;51.198;11.966;2022-11-20T12:14:43;99898.28;;;9.26;55.16
32733;BME280;11867;51.198;11.966;2022-11-20T12:19:51;99901.84;;;8.72;56.64
32733;BME280;11867;51.198;11.966;2022-11-20T12:25:01;99887.81;;;10.31;53.95
32733;BME280;11867;51.198;11.966;2022-11-20T12:30:09;99883.34;;;11.40;50.79
32733;BME280;11867;51.198;11.966;2022-11-20T12:35:29;99887.50;;;10.81;52.37
32733;BME280;11867;51.198;11.966;2022-11-20T12:40:41;99884.91;;;10.70;52.21
32733;BME280;11867;51.198;11.966;2022-11-20T12:45:56;99877.91;;;12.20;49.23
32733;BME280;11867;51.198;11.966;2022-11-20T12:51:17;99870.72;;;13.02;47.75
32733;BME280;11867;51.198;11.966;2022-11-20T12:56:34;99868.00;;;12.24;48.68
32733;BME280;11867;51.198;11.966;2022-11-20T13:01:44;99867.94;;;12.79;47.14
32733;BME280;11867;51.198;11.966;2022-11-20T13:06:52;99866.09;;;13.70;45.96
32733;BME280;11867;51.198;11.966;2022-11-20T13:12:10;99857.66;;;12.99;46.71
32733;BME280;11867;51.198;11.966;2022-11-20T13:17:24;99858.78;;;11.40;48.97
32733;BME280;11867;51.198;11.966;2022-11-20T13:22:43;99855.41;;;10.05;51.46
32733;BME280;11867;51.198;11.966;2022-11-20T13:27:51;99863.81;;;6.20;60.91
32733;BME280;11867;51.198;11.966;2022-11-20T13:32:56;99878.94;;;3.94;68.31
32733;BME280;11867;51.198;11.966;2022-11-20T13:38:06;99885.50;;;3.47;69.96
32733;BME280;11867;51.198;11.966;2022-11-20T13:43:22;99869.28;;;2.39;75.11
32733;BME280;11867;51.198;11.966;2022-11-20T13:48:32;99877.94;;;2.29;76.94
32733;BME280;11867;51.198;11.966;2022-11-20T13:53:51;99875.72;;;2.38;76.70
32733;BME280;11867;51.198;11.966;2022-11-20T13:59:02;99868.75;;;1.42;79.42
32733;BME280;11867;51.198;11.966;2022-11-20T14:04:18;99867.72;;;1.91;78.14
32733;BME280;11867;51.198;11.966;2022-11-20T14:09:27;99855.00;;;0.55;83.23
32733;BME280;11867;51.198;11.966;2022-11-20T14:14:33;99860.31;;;0.73;82.40
32733;BME280;11867;51.198;11.966;2022-11-20T14:19:39;99859.84;;;0.46;84.09
32733;BME280;11867;51.198;11.966;2022-11-20T14:24:44;99851.50;;;0.96;82.82
32733;BME280;11867;51.198;11.966;2022-11-20T14:29:50;99846.22;;;1.44;79.49
32733;BME280;11867;51.198;11.966;2022-11-20T14:34:53;99842.44;;;0.67;81.69
32733;BME280;11867;51.198;11.966;2022-11-20T14:39:56;99833.31;;;0.98;80.49
32733;BME280;11867;51.198;11.966;2022-11-20T14:45:02;99836.72;;;0.64;81.72
32733;BME280;11867;51.198;11.966;2022-11-20T14:50:13;99828.69;;;0.75;81.56
32733;BME280;11867;51.198;11.966;2022-11-20T14:55:26;99838.41;;;0.88;81.70
32733;BME280;11867;51.198;11.966;2022-11-20T15:00:32;99829.84;;;1.10;80.34
32733;BME280;11867;51.198;11.966;2022-11-20T15:05:53;99831.84;;;1.26;80.01
32733;BME280;11867;51.198;11.966;2022-11-20T15:10:57;99832.19;;;0.15;85.17
32733;BME280;11867;51.198;11.966;2022-11-20T15:16:12;99848.47;;;0.14;87.38
32733;BME280;11867;51.198;11.966;2022-11-20T15:21:19;99846.59;;;0.33;86.10
32733;BME280;11867;51.198;11.966;2022-11-20T15:26:24;99856.22;;;0.22;88.11
32733;BME280;11867;51.198;11.966;2022-11-20T15:31:30;99856.09;;;0.47;86.25
32733;BME280;11867;51.198;11.966;2022-11-20T15:36:36;99851.03;;;0.09;87.42
32733;BME280;11867;51.198;11.966;2022-11-20T15:41:40;99838.25;;;0.23;88.42
32733;BME280;11867;51.198;11.966;2022-11-20T15:46:44;99836.00;;;0.68;84.49
32733;BME280;11867;51.198;11.966;2022-11-20T15:51:49;99832.03;;;-0.08;87.07
32733;BME280;11867;51.198;11.966;2022-11-20T15:56:54;99841.00;;;-1.15;95.22
32733;BME280;11867;51.198;11.966;2022-11-20T16:01:59;99846.91;;;-1.06;95.04
32733;BME280;11867;51.198;11.966;2022-11-20T16:07:03;99839.00;;;-0.94;95.87
32733;BME280;11867;51.198;11.966;2022-11-20T16:12:08;99841.06;;;-0.46;91.32
32733;BME280;11867;51.198;11.966;2022-11-20T16:17:34;99825.72;;;-0.57;91.79
32733;BME280;11867;51.198;11.966;2022-11-20T16:22:45;99813.97;;;-1.32;94.17
32733;BME280;11867;51.198;11.966;2022-11-20T16:27:48;99806.50;;;-1.62;97.74
32733;BME280;11867;51.198;11.966;2022-11-20T16:32:53;99817.16;;;-1.93;100.00
32733;BME280;11867;51.198;11.966;2022-11-20T16:37:57;99804.81;;;-1.94;99.10
32733;BME280;11867;51.198;11.966;2022-11-20T16:43:07;99809.16;;;-2.00;100.00
32733;BME280;11867;51.198;11.966;2022-11-20T16:48:15;99803.16;;;-1.89;100.00
32733;BME280;11867;51.198;11.966;2022-11-20T16:53:19;99798.75;;;-2.15;100.00
32733;BME280;11867;51.198;11.966;2022-11-20T16:58:22;99795.25;;;-2.22;100.00
32733;BME280;11867;51.198;11.966;2022-11-20T17:03:26;99776.78;;;-2.17;100.00
32733;BME280;11867;51.198;11.966;2022-11-20T17:08:29;99773.03;;;-2.09;100.00
32733;BME280;11867;51.198;11.966;2022-11-20T17:13:34;99774.06;;;-1.33;99.88
32733;BME280;11867;51.198;11.966;2022-11-20T17:18:42;99784.75;;;-1.33;98.08
32733;BME280;11867;51.198;11.966;2022-11-20T17:23:46;99778.81;;;-1.67;99.70
32733;BME280;11867;51.198;11.966;2022-11-20T17:28:53;99783.69;;;-1.64;100.00
32733;BME280;11867;51.198;11.966;2022-11-20T17:33:59;99778.66;;;-1.40;98.68
32733;BME280;11867;51.198;11.966;2022-11-20T17:39:03;99777.06;;;-0.98;96.21
32733;BME280;11867;51.198;11.966;2022-11-20T17:44:09;99769.53;;;-0.83;95.86
32733;BME280;11867;51.198;11.966;2022-11-20T17:49:14;99774.38;;;-0.73;93.73
32733;BME280;11867;51.198;11.966;2022-11-20T17:54:24;99756.94;;;-0.57;92.75
32733;BME280;11867;51.198;11.966;2022-11-20T17:59:28;99746.69;;;0.07;90.09
32733;BME280;11867;51.198;11.966;2022-11-20T18:04:32;99735.25;;;0.00;88.98
32733;BME280;11867;51.198;11.966;2022-11-20T18:09:35;99731.06;;;0.34;86.97
32733;BME280;11867;51.198;11.966;2022-11-20T18:14:39;99720.72;;;0.08;86.73
32733;BME280;11867;51.198;11.966;2022-11-20T18:19:47;99723.56;;;-0.06;87.96
32733;BME280;11867;51.198;11.966;2022-11-20T18:25:11;99714.47;;;-0.05;86.46
32733;BME280;11867;51.198;11.966;2022-11-20T18:30:15;99725.41;;;-0.36;88.94
32733;BME280;11867;51.198;11.966;2022-11-20T18:35:20;99712.94;;;-0.12;89.67
32733;BME280;11867;51.198;11.966;2022-11-20T18:40:22;99719.75;;;0.32;88.29
32733;BME280;11867;51.198;11.966;2022-11-20T18:45:25;99695.66;;;0.44;87.12
32733;BME280;11867;51.198;11.966;2022-11-20T18:50:29;99688.69;;;0.78;85.47
32733;BME280;11867;51.198;11.966;2022-11-20T18:55:32;99683.34;;;1.02;84.55
32733;BME280;11867;51.198;11.966;2022-11-20T19:00:37;99662.44;;;1.16;84.14
32733;BME280;11867;51.198;11.966;2022-11-20T19:05:41;99654.72;;;1.19;84.10
32733;BME280;11867;51.198;11.966;2022-11-20T19:10:45;99646.88;;;1.30;83.47
32733;BME280;11867;51.198;11.966;2022-11-20T19:15:48;99648.78;;;1.17;84.37
32733;BME280;11867;51.198;11.966;2022-11-20T19:20:52;99632.56;;;1.00;85.12
32733;BME280;11867;51.198;11.966;2022-11-20T19:25:57;99622.34;;;1.38;83.97
32733;BME280;11867;51.198;11.966;2022-11-20T19:31:02;99611.97;;;1.30;84.25
32733;BME280;11867;51.198;11.966;2022-11-20T19:36:11;99614.34;;;1.03;86.59
32733;BME280;11867;51.198;11.966;2022-11-20T19:41:15;99616.81;;;1.16;86.27
32733;BME280;11867;51.198;11.966;2022-11-20T19:46:18;99603.09;;;1.29;85.37
32733;BME280;11867;51.198;11.966;2022-11-20T19:51:25;99587.13;;;1.23;85.41
32733;BME280;11867;51.198;11.966;2022-11-20T19:56:29;99579.41;;;1.55;84.94
32733;BME280;11867;51.198;11.966;2022-11-20T20:01:33;99575.59;;;1.22;86.09
32733;BME280;11867;51.198;11.966;2022-11-20T20:06:38;99579.91;;;1.52;85.84
32733;BME280;11867;51.198;11.966;2022-11-20T20:11:44;99572.03;;;1.62;85.46
32733;BME280;11867;51.198;11.966;2022-11-20T20:16:47;99571.50;;;1.77;84.25
32733;BME280;11867;51.198;11.966;2022-11-20T20:21:50;99574.38;;;1.58;85.51
32733;BME280;11867;51.198;11.966;2022-11-20T20:26:54;99561.69;;;1.54;86.02
32733;BME280;11867;51.198;11.966;2022-11-20T20:31:58;99560.09;;;1.70;86.23
32733;BME280;11867;51.198;11.966;2022-11-20T20:37:02;99559.78;;;2.00;85.05
32733;BME280;11867;51.198;11.966;2022-11-20T20:42:05;99552.28;;;1.85;85.58
32733;BME280;11867;51.198;11.966;2022-11-20T20:47:08;99558.25;;;2.04;85.16
32733;BME280;11867;51.198;11.966;2022-11-20T20:52:12;99564.03;;;2.13;84.78
32733;BME280;11867;51.198;11.966;2022-11-20T20:57:15;99550.03;;;2.28;84.12
32733;BME280;11867;51.198;11.966;2022-11-20T21:02:18;99534.56;;;2.01;85.40
32733;BME280;11867;51.198;11.966;2022-11-20T21:07:22;99513.50;;;1.98;86.45
32733;BME280;11867;51.198;11.966;2022-11-20T21:12:24;99514.16;;;2.22;85.70
32733;BME280;11867;51.198;11.966;2022-11-20T21:17:27;99511.38;;;2.17;86.14
32733;BME280;11867;51.198;11.966;2022-11-20T21:22:31;99510.00;;;2.14;86.53
32733;BME280;11867;51.198;11.966;2022-11-20T21:27:36;99506.44;;;2.26;86.22
32733;BME280;11867;51.198;11.966;2022-11-20T21:32:39;99489.03;;;2.33;86.10
32733;BME280;11867;51.198;11.966;2022-11-20T21:37:43;99472.94;;;2.16;86.84
32733;BME280;11867;51.198;11.966;2022-11-20T21:42:46;99471.13;;;2.22;87.34
32733;BME280;11867;51.198;11.966;2022-11-20T21:47:48;99471.66;;;1.85;88.65
32733;BME280;11867;51.198;11.966;2022-11-20T21:52:53;99443.53;;;2.10;89.19
32733;BME280;11867;51.198;11.966;2022-11-20T21:57:55;99441.81;;;2.42;87.95
32733;BME280;11867;51.198;11.966;2022-11-20T22:02:58;99430.78;;;2.22;88.73
32733;BME280;11867;51.198;11.966;2022-11-20T22:08:02;99414.59;;;2.39;88.26
32733;BME280;11867;51.198;11.966;2022-11-20T22:13:05;99410.22;;;2.33;88.63
32733;BME280;11867;51.198;11.966;2022-11-20T22:18:26;99390.84;;;2.53;88.07
32733;BME280;11867;51.198;11.966;2022-11-20T22:23:31;99381.50;;;2.38;88.51
32733;BME280;11867;51.198;11.966;2022-11-20T22:28:35;99360.81;;;2.39;88.54
32733;BME280;11867;51.198;11.966;2022-11-20T22:33:38;99364.06;;;2.41;88.12
32733;BME280;11867;51.198;11.966;2022-11-20T22:38:43;99355.25;;;2.24;89.51
32733;BME280;11867;51.198;11.966;2022-11-20T22:43:47;99336.66;;;2.00;90.13
32733;BME280;11867;51.198;11.966;2022-11-20T22:48:52;99330.72;;;1.25;97.61
32733;BME280;11867;51.198;11.966;2022-11-20T22:53:58;99314.16;;;1.84;93.75
32733;BME280;11867;51.198;11.966;2022-11-20T22:59:04;99307.00;;;2.17;92.27
32733;BME280;11867;51.198;11.966;2022-11-20T23:04:09;99304.06;;;2.18;91.07
32733;BME280;11867;51.198;11.966;2022-11-20T23:09:14;99289.06;;;1.78;92.61
32733;BME280;11867;51.198;11.966;2022-11-20T23:14:18;99278.63;;;2.04;92.88
32733;BME280;11867;51.198;11.966;2022-11-20T23:19:28;99268.06;;;2.19;92.18
32733;BME280;11867;51.198;11.966;2022-11-20T23:24:32;99265.31;;;2.14;93.38
32733;BME280;11867;51.198;11.966;2022-11-20T23:29:35;99252.59;;;2.32;91.77
32733;BME280;11867;51.198;11.966;2022-11-20T23:34:37;99249.56;;;2.01;93.04
32733;BME280;11867;51.198;11.966;2022-11-20T23:39:42;99239.69;;;2.61;90.77
32733;BME280;11867;51.198;11.966;2022-11-20T23:44:47;99231.09;;;2.64;90.91
32733;BME280;11867;51.198;11.966;2022-11-20T23:49:50;99225.44;;;2.60;91.08
32733;BME280;11867;51.198;11.966;2022-11-20T23:54:54;99204.56;;;2.78;90.16
32733;BME280;11867;51.198;11.966;2022-11-20T23:59:56;99211.25;;;2.38;91.94
